sensor_id;sensor_type;location;lat;lon;timestamp;temperature;humidity
2453;DHT22;63678;47.994;7.854;2023-09-07T00:01:46;20.50;99.90
2453;DHT22;63678;47.994;7.854;2023-09-07T00:04:20;20.40;99.90
2453;DHT22;63678;47.994;7.854;2023-09-07T00:06:54;20.30;99.90
2453;DHT22;63678;47.994;7.854;2023-09-07T00:09:27;20.30;99.90
2453;DHT22;63678;47.994;7.854;2023-09-07T00:12:00;20.30;99.90
2453;DHT22;63678;47.994;7.854;2023-09-07T00:14:33;20.60;99.90
2453;DHT22;63678;47.994;7.854;2023-09-07T00:17:05;20.50;99.90
2453;DHT22;63678;47.994;7.854;2023-09-07T00:19:38;20.50;99.90
2453;DHT22;63678;47.994;7.854;2023-09-07T00:22:10;20.70;99.90
2453;DHT22;63678;47.994;7.854;2023-09-07T00:24:44;20.50;99.90
2453;DHT22;63678;47.994;7.854;2023-09-07T00:29:50;20.20;99.90
2453;DHT22;63678;47.994;7.854;2023-09-07T00:32:22;20.30;99.90
2453;DHT22;63678;47.994;7.854;2023-09-07T00:34:55;20.40;99.90
2453;DHT22;63678;47.994;7.854;2023-09-07T00:42:34;20.40;99.90
2453;DHT22;63678;47.994;7.854;2023-09-07T00:45:07;20.40;99.90
2453;DHT22;63678;47.994;7.854;2023-09-07T00:47:40;20.40;99.90
2453;DHT22;63678;47.994;7.854;2023-09-07T00:50:13;20.30;99.90
2453;DHT22;63678;47.994;7.854;2023-09-07T00:52:48;20.10;99.90
2453;DHT22;63678;47.994;7.854;2023-09-07T00:57:55;19.80;99.90
2453;DHT22;63678;47.994;7.854;2023-09-07T01:00:28;20.00;99.90
2453;DHT22;63678;47.994;7.854;2023-09-07T01:06:12;19.90;99.90
2453;DHT22;63678;47.994;7.854;2023-09-07T01:08:44;19.60;99.90
2453;DHT22;63678;47.994;7.854;2023-09-07T01:11:18;19.60;99.90
2453;DHT22;63678;47.994;7.854;2023-09-07T01:13:58;19.70;99.90
2453;DHT22;63678;47.994;7.854;2023-09-07T01:16:32;19.80;99.90
2453;DHT22;63678;47.994;7.854;2023-09-07T01:19:10;19.80;99.90
2453;DHT22;63678;47.994;7.854;2023-09-07T01:22:04;19.60;99.90
2453;DHT22;63678;47.994;7.854;2023-09-07T01:24:38;19.60;99.90
2453;DHT22;63678;47.994;7.854;2023-09-07T01:27:12;19.50;99.90
2453;DHT22;63678;47.994;7.854;2023-09-07T01:29:47;19.50;99.90
2453;DHT22;63678;47.994;7.854;2023-09-07T01:32:20;19.80;99.90
2453;DHT22;63678;47.994;7.854;2023-09-07T01:34:55;19.80;99.90
2453;DHT22;63678;47.994;7.854;2023-09-07T01:37:30;19.70;99.90
2453;DHT22;63678;47.994;7.854;2023-09-07T01:40:02;19.70;99.90
2453;DHT22;63678;47.994;7.854;2023-09-07T01:42:40;19.60;99.90
2453;DHT22;63678;47.994;7.854;2023-09-07T01:47:44;19.80;99.90
2453;DHT22;63678;47.994;7.854;2023-09-07T01:50:18;19.80;99.90
2453;DHT22;63678;47.994;7.854;2023-09-07T01:57:57;19.30;99.90
2453;DHT22;63678;47.994;7.854;2023-09-07T02:00:30;19.30;99.90
2453;DHT22;63678;47.994;7.854;2023-09-07T02:03:03;19.20;99.90
2453;DHT22;63678;47.994;7.854;2023-09-07T02:05:35;19.10;99.90
2453;DHT22;63678;47.994;7.854;2023-09-07T02:10:41;18.90;99.90
2453;DHT22;63678;47.994;7.854;2023-09-07T02:13:13;18.60;99.90
2453;DHT22;63678;47.994;7.854;2023-09-07T02:15:45;18.30;99.90
2453;DHT22;63678;47.994;7.854;2023-09-07T02:18:18;18.20;99.90
2453;DHT22;63678;47.994;7.854;2023-09-07T02:20:50;18.00;99.90
2453;DHT22;63678;47.994;7.854;2023-09-07T02:23:23;17.90;99.90
2453;DHT22;63678;47.994;7.854;2023-09-07T02:25:55;17.90;99.90
2453;DHT22;63678;47.994;7.854;2023-09-07T02:28:28;17.70;99.90
2453;DHT22;63678;47.994;7.854;2023-09-07T02:31:05;17.70;99.90
2453;DHT22;63678;47.994;7.854;2023-09-07T02:33:38;17.60;99.90
2453;DHT22;63678;47.994;7.854;2023-09-07T02:36:11;17.50;99.90
2453;DHT22;63678;47.994;7.854;2023-09-07T02:38:43;17.40;99.90
2453;DHT22;63678;47.994;7.854;2023-09-07T02:41:16;17.40;99.90
2453;DHT22;63678;47.994;7.854;2023-09-07T02:43:48;17.30;99.90
2453;DHT22;63678;47.994;7.854;2023-09-07T02:46:21;17.40;99.90
2453;DHT22;63678;47.994;7.854;2023-09-07T02:48:53;17.40;99.90
2453;DHT22;63678;47.994;7.854;2023-09-07T02:51:30;17.40;99.90
2453;DHT22;63678;47.994;7.854;2023-09-07T02:54:03;17.40;99.90
2453;DHT22;63678;47.994;7.854;2023-09-07T03:00:13;17.40;99.90
2453;DHT22;63678;47.994;7.854;2023-09-07T03:02:45;17.40;99.90
2453;DHT22;63678;47.994;7.854;2023-09-07T03:07:51;17.40;99.90
2453;DHT22;63678;47.994;7.854;2023-09-07T03:10:24;17.40;99.90
2453;DHT22;63678;47.994;7.854;2023-09-07T03:12:56;17.40;99.90
2453;DHT22;63678;47.994;7.854;2023-09-07T03:15:30;17.40;99.90
2453;DHT22;63678;47.994;7.854;2023-09-07T03:18:03;17.50;99.90
2453;DHT22;63678;47.994;7.854;2023-09-07T03:20:36;17.50;99.90
2453;DHT22;63678;47.994;7.854;2023-09-07T03:25:42;17.50;99.90
2453;DHT22;63678;47.994;7.854;2023-09-07T03:30:51;17.60;99.90
2453;DHT22;63678;47.994;7.854;2023-09-07T03:33:24;17.50;99.90
2453;DHT22;63678;47.994;7.854;2023-09-07T03:35:57;17.40;99.90
2453;DHT22;63678;47.994;7.854;2023-09-07T03:38:31;18.40;99.90
2453;DHT22;63678;47.994;7.854;2023-09-07T03:41:04;18.80;99.90
2453;DHT22;63678;47.994;7.854;2023-09-07T03:43:38;18.90;99.90
2453;DHT22;63678;47.994;7.854;2023-09-07T03:46:10;18.90;99.90
2453;DHT22;63678;47.994;7.854;2023-09-07T03:48:43;18.80;99.90
2453;DHT22;63678;47.994;7.854;2023-09-07T03:53:49;18.80;99.90
2453;DHT22;63678;47.994;7.854;2023-09-07T03:56:22;19.10;99.90
2453;DHT22;63678;47.994;7.854;2023-09-07T04:01:29;19.20;99.90
2453;DHT22;63678;47.994;7.854;2023-09-07T04:04:02;19.20;99.90
2453;DHT22;63678;47.994;7.854;2023-09-07T04:06:35;19.00;99.90
2453;DHT22;63678;47.994;7.854;2023-09-07T04:09:07;19.00;99.90
2453;DHT22;63678;47.994;7.854;2023-09-07T04:14:12;18.80;99.90
2453;DHT22;63678;47.994;7.854;2023-09-07T04:16:45;18.40;99.90
2453;DHT22;63678;47.994;7.854;2023-09-07T04:19:21;18.30;99.90
2453;DHT22;63678;47.994;7.854;2023-09-07T04:21:53;18.10;99.90
2453;DHT22;63678;47.994;7.854;2023-09-07T04:24:26;18.10;99.90
2453;DHT22;63678;47.994;7.854;2023-09-07T04:27:02;17.80;99.90
2453;DHT22;63678;47.994;7.854;2023-09-07T04:29:38;17.90;99.90
2453;DHT22;63678;47.994;7.854;2023-09-07T04:32:30;17.80;99.90
2453;DHT22;63678;47.994;7.854;2023-09-07T04:35:02;17.80;99.90
2453;DHT22;63678;47.994;7.854;2023-09-07T04:37:35;17.70;99.90
2453;DHT22;63678;47.994;7.854;2023-09-07T04:40:08;17.70;99.90
2453;DHT22;63678;47.994;7.854;2023-09-07T04:42:40;17.70;99.90
2453;DHT22;63678;47.994;7.854;2023-09-07T04:45:14;17.70;99.90
2453;DHT22;63678;47.994;7.854;2023-09-07T04:48:06;17.80;99.90
2453;DHT22;63678;47.994;7.854;2023-09-07T04:50:38;17.60;99.90
2453;DHT22;63678;47.994;7.854;2023-09-07T04:53:11;17.60;99.90
2453;DHT22;63678;47.994;7.854;2023-09-07T04:58:17;17.60;99.90
2453;DHT22;63678;47.994;7.854;2023-09-07T05:00:50;17.60;99.90
2453;DHT22;63678;47.994;7.854;2023-09-07T05:03:22;17.50;99.90
2453;DHT22;63678;47.994;7.854;2023-09-07T05:05:56;17.50;99.90
2453;DHT22;63678;47.994;7.854;2023-09-07T05:08:29;17.50;99.90
2453;DHT22;63678;47.994;7.854;2023-09-07T05:11:03;17.50;99.90
2453;DHT22;63678;47.994;7.854;2023-09-07T05:13:36;17.50;99.90
2453;DHT22;63678;47.994;7.854;2023-09-07T05:16:09;17.50;99.90
2453;DHT22;63678;47.994;7.854;2023-09-07T05:21:15;17.60;99.90
2453;DHT22;63678;47.994;7.854;2023-09-07T05:23:48;17.50;99.90
2453;DHT22;63678;47.994;7.854;2023-09-07T05:26:21;17.60;99.90
2453;DHT22;63678;47.994;7.854;2023-09-07T05:31:29;17.70;99.90
2453;DHT22;63678;47.994;7.854;2023-09-07T05:34:02;17.80;99.90
2453;DHT22;63678;47.994;7.854;2023-09-07T05:36:55;17.80;99.90
2453;DHT22;63678;47.994;7.854;2023-09-07T05:39:27;17.80;99.90
2453;DHT22;63678;47.994;7.854;2023-09-07T05:41:59;17.90;99.90
2453;DHT22;63678;47.994;7.854;2023-09-07T05:44:32;19.30;99.90
2453;DHT22;63678;47.994;7.854;2023-09-07T05:47:05;18.70;99.90
2453;DHT22;63678;47.994;7.854;2023-09-07T05:49:38;18.90;99.90
2453;DHT22;63678;47.994;7.854;2023-09-07T05:57:16;19.10;99.90
2453;DHT22;63678;47.994;7.854;2023-09-07T05:59:49;19.10;99.90
2453;DHT22;63678;47.994;7.854;2023-09-07T06:02:22;19.20;99.90
2453;DHT22;63678;47.994;7.854;2023-09-07T06:04:54;19.10;99.90
2453;DHT22;63678;47.994;7.854;2023-09-07T06:07:27;19.00;99.90
2453;DHT22;63678;47.994;7.854;2023-09-07T06:09:59;19.10;99.90
2453;DHT22;63678;47.994;7.854;2023-09-07T06:15:09;19.20;99.90
2453;DHT22;63678;47.994;7.854;2023-09-07T06:17:43;19.20;99.90
2453;DHT22;63678;47.994;7.854;2023-09-07T06:22:51;19.40;99.90
2453;DHT22;63678;47.994;7.854;2023-09-07T06:25:24;19.40;99.90
2453;DHT22;63678;47.994;7.854;2023-09-07T06:27:59;19.60;99.90
2453;DHT22;63678;47.994;7.854;2023-09-07T06:30:31;19.70;99.90
2453;DHT22;63678;47.994;7.854;2023-09-07T06:33:04;19.80;99.90
2453;DHT22;63678;47.994;7.854;2023-09-07T06:35:37;19.90;99.90
2453;DHT22;63678;47.994;7.854;2023-09-07T06:38:10;19.90;99.90
2453;DHT22;63678;47.994;7.854;2023-09-07T06:40:48;19.70;99.90
2453;DHT22;63678;47.994;7.854;2023-09-07T06:43:23;19.80;99.90
2453;DHT22;63678;47.994;7.854;2023-09-07T06:46:08;19.70;99.90
2453;DHT22;63678;47.994;7.854;2023-09-07T06:48:43;19.70;99.90
2453;DHT22;63678;47.994;7.854;2023-09-07T06:51:17;19.90;99.90
2453;DHT22;63678;47.994;7.854;2023-09-07T06:53:50;20.10;99.90
2453;DHT22;63678;47.994;7.854;2023-09-07T06:56:29;20.20;99.90
2453;DHT22;63678;47.994;7.854;2023-09-07T06:59:03;20.00;99.90
2453;DHT22;63678;47.994;7.854;2023-09-07T07:01:36;20.00;99.90
2453;DHT22;63678;47.994;7.854;2023-09-07T07:04:10;19.80;99.90
2453;DHT22;63678;47.994;7.854;2023-09-07T07:06:43;19.60;99.90
2453;DHT22;63678;47.994;7.854;2023-09-07T07:11:49;19.50;99.90
2453;DHT22;63678;47.994;7.854;2023-09-07T07:14:21;19.50;99.90
2453;DHT22;63678;47.994;7.854;2023-09-07T07:16:54;19.60;99.90
2453;DHT22;63678;47.994;7.854;2023-09-07T07:19:28;20.10;99.90
2453;DHT22;63678;47.994;7.854;2023-09-07T07:22:01;20.40;99.90
2453;DHT22;63678;47.994;7.854;2023-09-07T07:24:34;20.40;99.90
2453;DHT22;63678;47.994;7.854;2023-09-07T07:27:06;20.40;99.90
2453;DHT22;63678;47.994;7.854;2023-09-07T07:29:39;20.50;99.90
2453;DHT22;63678;47.994;7.854;2023-09-07T07:32:12;20.80;99.90
2453;DHT22;63678;47.994;7.854;2023-09-07T07:34:45;21.80;99.90
2453;DHT22;63678;47.994;7.854;2023-09-07T07:37:18;21.90;99.90
2453;DHT22;63678;47.994;7.854;2023-09-07T07:39:50;22.90;99.90
2453;DHT22;63678;47.994;7.854;2023-09-07T07:42:23;22.90;99.90
2453;DHT22;63678;47.994;7.854;2023-09-07T07:44:56;22.40;99.90
2453;DHT22;63678;47.994;7.854;2023-09-07T07:47:28;22.10;99.90
2453;DHT22;63678;47.994;7.854;2023-09-07T07:50:01;21.70;99.90
2453;DHT22;63678;47.994;7.854;2023-09-07T07:52:34;21.50;99.90
2453;DHT22;63678;47.994;7.854;2023-09-07T07:55:08;21.80;99.90
2453;DHT22;63678;47.994;7.854;2023-09-07T07:57:41;22.70;99.90
2453;DHT22;63678;47.994;7.854;2023-09-07T08:00:15;23.10;99.90
2453;DHT22;63678;47.994;7.854;2023-09-07T08:05:29;23.20;99.90
2453;DHT22;63678;47.994;7.854;2023-09-07T08:08:05;23.70;99.90
2453;DHT22;63678;47.994;7.854;2023-09-07T08:10:39;24.20;99.90
2453;DHT22;63678;47.994;7.854;2023-09-07T08:13:14;24.20;99.90
2453;DHT22;63678;47.994;7.854;2023-09-07T08:15:47;25.60;99.90
2453;DHT22;63678;47.994;7.854;2023-09-07T08:18:21;25.20;99.90
2453;DHT22;63678;47.994;7.854;2023-09-07T08:20:55;25.60;99.90
2453;DHT22;63678;47.994;7.854;2023-09-07T08:23:28;25.60;99.90
2453;DHT22;63678;47.994;7.854;2023-09-07T08:26:01;25.80;99.90
2453;DHT22;63678;47.994;7.854;2023-09-07T08:28:35;25.90;99.90
2453;DHT22;63678;47.994;7.854;2023-09-07T08:31:07;25.60;99.90
2453;DHT22;63678;47.994;7.854;2023-09-07T08:33:41;25.40;99.90
2453;DHT22;63678;47.994;7.854;2023-09-07T08:36:13;25.90;99.90
2453;DHT22;63678;47.994;7.854;2023-09-07T08:38:50;26.30;99.90
2453;DHT22;63678;47.994;7.854;2023-09-07T08:44:00;27.40;99.90
2453;DHT22;63678;47.994;7.854;2023-09-07T08:46:33;27.40;99.90
2453;DHT22;63678;47.994;7.854;2023-09-07T08:49:06;28.70;99.90
2453;DHT22;63678;47.994;7.854;2023-09-07T08:51:39;29.40;99.90
2453;DHT22;63678;47.994;7.854;2023-09-07T08:54:12;27.40;99.90
2453;DHT22;63678;47.994;7.854;2023-09-07T08:56:49;27.40;99.90
2453;DHT22;63678;47.994;7.854;2023-09-07T08:59:21;28.30;99.90
2453;DHT22;63678;47.994;7.854;2023-09-07T09:01:57;27.20;99.90
2453;DHT22;63678;47.994;7.854;2023-09-07T09:04:33;27.40;99.90
2453;DHT22;63678;47.994;7.854;2023-09-07T09:07:05;28.00;99.90
2453;DHT22;63678;47.994;7.854;2023-09-07T09:09:38;28.80;99.90
2453;DHT22;63678;47.994;7.854;2023-09-07T09:12:14;28.60;99.90
2453;DHT22;63678;47.994;7.854;2023-09-07T09:14:46;28.00;99.90
2453;DHT22;63678;47.994;7.854;2023-09-07T09:17:19;28.20;99.90
2453;DHT22;63678;47.994;7.854;2023-09-07T09:19:51;27.70;99.90
2453;DHT22;63678;47.994;7.854;2023-09-07T09:22:24;27.30;99.90
2453;DHT22;63678;47.994;7.854;2023-09-07T09:25:02;26.70;99.90
2453;DHT22;63678;47.994;7.854;2023-09-07T09:27:36;26.20;99.90
2453;DHT22;63678;47.994;7.854;2023-09-07T09:30:08;26.00;99.90
2453;DHT22;63678;47.994;7.854;2023-09-07T09:32:44;26.50;99.90
2453;DHT22;63678;47.994;7.854;2023-09-07T09:35:17;26.30;99.90
2453;DHT22;63678;47.994;7.854;2023-09-07T09:37:52;26.40;99.90
2453;DHT22;63678;47.994;7.854;2023-09-07T09:40:25;26.20;99.90
2453;DHT22;63678;47.994;7.854;2023-09-07T09:42:59;27.50;99.90
2453;DHT22;63678;47.994;7.854;2023-09-07T09:45:34;27.30;99.90
2453;DHT22;63678;47.994;7.854;2023-09-07T09:48:08;27.00;99.90
2453;DHT22;63678;47.994;7.854;2023-09-07T09:50:42;26.50;99.90
2453;DHT22;63678;47.994;7.854;2023-09-07T09:53:16;26.90;99.90
2453;DHT22;63678;47.994;7.854;2023-09-07T09:58:24;27.10;99.90
2453;DHT22;63678;47.994;7.854;2023-09-07T10:00:58;27.40;99.90
2453;DHT22;63678;47.994;7.854;2023-09-07T10:03:38;27.70;99.90
2453;DHT22;63678;47.994;7.854;2023-09-07T10:06:24;28.20;99.90
2453;DHT22;63678;47.994;7.854;2023-09-07T10:09:04;28.10;99.90
2453;DHT22;63678;47.994;7.854;2023-09-07T10:16:47;28.70;99.90
2453;DHT22;63678;47.994;7.854;2023-09-07T10:19:25;28.90;99.90
2453;DHT22;63678;47.994;7.854;2023-09-07T10:21:58;28.10;99.90
2453;DHT22;63678;47.994;7.854;2023-09-07T10:24:34;28.10;99.90
2453;DHT22;63678;47.994;7.854;2023-09-07T10:29:50;28.30;99.90
2453;DHT22;63678;47.994;7.854;2023-09-07T10:32:40;28.30;99.90
2453;DHT22;63678;47.994;7.854;2023-09-07T10:35:14;28.70;99.90
2453;DHT22;63678;47.994;7.854;2023-09-07T10:37:48;28.70;99.90
2453;DHT22;63678;47.994;7.854;2023-09-07T10:40:22;28.40;99.90
2453;DHT22;63678;47.994;7.854;2023-09-07T10:43:02;28.10;99.90
2453;DHT22;63678;47.994;7.854;2023-09-07T10:45:36;28.50;99.90
2453;DHT22;63678;47.994;7.854;2023-09-07T10:48:09;29.50;99.90
2453;DHT22;63678;47.994;7.854;2023-09-07T10:50:44;29.50;99.90
2453;DHT22;63678;47.994;7.854;2023-09-07T10:53:26;29.30;99.90
2453;DHT22;63678;47.994;7.854;2023-09-07T10:56:05;28.60;99.90
2453;DHT22;63678;47.994;7.854;2023-09-07T10:58:38;29.00;99.90
2453;DHT22;63678;47.994;7.854;2023-09-07T11:01:13;29.00;99.90
2453;DHT22;63678;47.994;7.854;2023-09-07T11:04:10;29.00;99.90
2453;DHT22;63678;47.994;7.854;2023-09-07T11:06:43;29.20;99.90
2453;DHT22;63678;47.994;7.854;2023-09-07T11:09:16;28.80;99.90
2453;DHT22;63678;47.994;7.854;2023-09-07T11:11:51;29.10;99.90
2453;DHT22;63678;47.994;7.854;2023-09-07T11:14:29;29.50;99.90
2453;DHT22;63678;47.994;7.854;2023-09-07T11:17:02;29.40;99.90
2453;DHT22;63678;47.994;7.854;2023-09-07T11:19:35;29.50;99.90
2453;DHT22;63678;47.994;7.854;2023-09-07T11:22:11;30.10;99.90
2453;DHT22;63678;47.994;7.854;2023-09-07T11:24:43;29.80;99.90
2453;DHT22;63678;47.994;7.854;2023-09-07T11:27:18;29.50;99.90
2453;DHT22;63678;47.994;7.854;2023-09-07T11:29:52;29.70;99.90
2453;DHT22;63678;47.994;7.854;2023-09-07T11:32:24;30.00;99.90
2453;DHT22;63678;47.994;7.854;2023-09-07T11:34:57;29.60;99.90
2453;DHT22;63678;47.994;7.854;2023-09-07T11:37:31;29.80;99.90
2453;DHT22;63678;47.994;7.854;2023-09-07T11:40:04;29.90;99.90
2453;DHT22;63678;47.994;7.854;2023-09-07T11:45:16;29.70;99.90
2453;DHT22;63678;47.994;7.854;2023-09-07T11:47:49;30.10;99.90
2453;DHT22;63678;47.994;7.854;2023-09-07T11:50:23;29.70;99.90
2453;DHT22;63678;47.994;7.854;2023-09-07T11:53:02;29.80;99.90
2453;DHT22;63678;47.994;7.854;2023-09-07T11:55:35;29.80;99.90
2453;DHT22;63678;47.994;7.854;2023-09-07T11:58:07;29.80;99.90
2453;DHT22;63678;47.994;7.854;2023-09-07T12:03:13;29.80;99.90
2453;DHT22;63678;47.994;7.854;2023-09-07T12:05:46;30.20;99.90
2453;DHT22;63678;47.994;7.854;2023-09-07T12:08:17;30.40;99.90
2453;DHT22;63678;47.994;7.854;2023-09-07T12:10:50;30.40;99.90
2453;DHT22;63678;47.994;7.854;2023-09-07T12:13:22;30.50;99.90
2453;DHT22;63678;47.994;7.854;2023-09-07T12:15:54;30.10;99.90
2453;DHT22;63678;47.994;7.854;2023-09-07T12:18:26;29.40;99.90
2453;DHT22;63678;47.994;7.854;2023-09-07T12:21:02;29.50;99.90
2453;DHT22;63678;47.994;7.854;2023-09-07T12:23:34;29.80;99.90
2453;DHT22;63678;47.994;7.854;2023-09-07T12:28:40;29.90;99.90
2453;DHT22;63678;47.994;7.854;2023-09-07T12:31:13;30.30;99.90
2453;DHT22;63678;47.994;7.854;2023-09-07T12:33:46;30.30;99.90
2453;DHT22;63678;47.994;7.854;2023-09-07T12:36:19;30.20;99.90
2453;DHT22;63678;47.994;7.854;2023-09-07T12:38:53;30.40;99.90
2453;DHT22;63678;47.994;7.854;2023-09-07T12:44:02;30.50;99.90
2453;DHT22;63678;47.994;7.854;2023-09-07T12:46:34;30.60;99.90
2453;DHT22;63678;47.994;7.854;2023-09-07T12:49:08;30.60;99.90
2453;DHT22;63678;47.994;7.854;2023-09-07T12:54:14;30.50;99.90
2453;DHT22;63678;47.994;7.854;2023-09-07T12:56:47;30.30;99.90
2453;DHT22;63678;47.994;7.854;2023-09-07T12:59:19;29.80;99.90
2453;DHT22;63678;47.994;7.854;2023-09-07T13:01:51;30.30;99.90
2453;DHT22;63678;47.994;7.854;2023-09-07T13:04:27;30.20;99.90
2453;DHT22;63678;47.994;7.854;2023-09-07T13:06:59;30.20;99.90
2453;DHT22;63678;47.994;7.854;2023-09-07T13:09:33;30.40;99.90
2453;DHT22;63678;47.994;7.854;2023-09-07T13:12:06;30.20;99.90
2453;DHT22;63678;47.994;7.854;2023-09-07T13:14:38;30.10;99.90
2453;DHT22;63678;47.994;7.854;2023-09-07T13:17:13;30.10;99.90
2453;DHT22;63678;47.994;7.854;2023-09-07T13:19:48;30.10;99.90
2453;DHT22;63678;47.994;7.854;2023-09-07T13:22:20;29.60;99.90
2453;DHT22;63678;47.994;7.854;2023-09-07T13:24:53;29.70;99.90
2453;DHT22;63678;47.994;7.854;2023-09-07T13:29:57;30.00;99.90
2453;DHT22;63678;47.994;7.854;2023-09-07T13:32:30;30.10;99.90
2453;DHT22;63678;47.994;7.854;2023-09-07T13:35:05;30.10;99.90
2453;DHT22;63678;47.994;7.854;2023-09-07T13:37:37;30.20;99.90
2453;DHT22;63678;47.994;7.854;2023-09-07T13:40:09;30.40;99.90
2453;DHT22;63678;47.994;7.854;2023-09-07T13:42:42;30.20;99.90
2453;DHT22;63678;47.994;7.854;2023-09-07T13:45:14;30.20;99.90
2453;DHT22;63678;47.994;7.854;2023-09-07T13:47:47;29.20;99.90
2453;DHT22;63678;47.994;7.854;2023-09-07T13:50:19;29.90;99.90
2453;DHT22;63678;47.994;7.854;2023-09-07T13:52:54;30.20;99.90
2453;DHT22;63678;47.994;7.854;2023-09-07T13:55:26;30.30;99.90
2453;DHT22;63678;47.994;7.854;2023-09-07T13:57:58;30.00;99.90
2453;DHT22;63678;47.994;7.854;2023-09-07T14:00:30;29.90;99.90
2453;DHT22;63678;47.994;7.854;2023-09-07T14:03:02;30.40;99.90
2453;DHT22;63678;47.994;7.854;2023-09-07T14:05:35;30.50;99.90
2453;DHT22;63678;47.994;7.854;2023-09-07T14:08:07;30.30;99.90
2453;DHT22;63678;47.994;7.854;2023-09-07T14:10:39;30.20;99.90
2453;DHT22;63678;47.994;7.854;2023-09-07T14:16:34;30.20;99.90
2453;DHT22;63678;47.994;7.854;2023-09-07T14:19:06;30.40;99.90
2453;DHT22;63678;47.994;7.854;2023-09-07T14:21:38;30.30;99.90
2453;DHT22;63678;47.994;7.854;2023-09-07T14:24:11;30.30;99.90
2453;DHT22;63678;47.994;7.854;2023-09-07T14:26:42;30.30;99.90
2453;DHT22;63678;47.994;7.854;2023-09-07T14:29:15;30.30;99.90
2453;DHT22;63678;47.994;7.854;2023-09-07T14:31:47;30.20;99.90
2453;DHT22;63678;47.994;7.854;2023-09-07T14:34:20;30.10;99.90
2453;DHT22;63678;47.994;7.854;2023-09-07T14:39:29;30.30;99.90
2453;DHT22;63678;47.994;7.854;2023-09-07T14:42:01;30.20;99.90
2453;DHT22;63678;47.994;7.854;2023-09-07T14:44:33;30.00;99.90
2453;DHT22;63678;47.994;7.854;2023-09-07T14:47:06;30.00;99.90
2453;DHT22;63678;47.994;7.854;2023-09-07T14:49:40;30.20;99.90
2453;DHT22;63678;47.994;7.854;2023-09-07T14:52:12;30.30;99.90
2453;DHT22;63678;47.994;7.854;2023-09-07T14:54:44;30.20;99.90
2453;DHT22;63678;47.994;7.854;2023-09-07T14:57:16;30.10;99.90
2453;DHT22;63678;47.994;7.854;2023-09-07T14:59:50;30.30;99.90
2453;DHT22;63678;47.994;7.854;2023-09-07T15:02:22;30.30;99.90
2453;DHT22;63678;47.994;7.854;2023-09-07T15:04:55;30.40;99.90
2453;DHT22;63678;47.994;7.854;2023-09-07T15:07:27;30.40;99.90
2453;DHT22;63678;47.994;7.854;2023-09-07T15:09:59;30.40;99.90
2453;DHT22;63678;47.994;7.854;2023-09-07T15:12:32;30.20;99.90
2453;DHT22;63678;47.994;7.854;2023-09-07T15:15:04;30.30;99.90
2453;DHT22;63678;47.994;7.854;2023-09-07T15:17:38;30.20;99.90
2453;DHT22;63678;47.994;7.854;2023-09-07T15:20:12;30.20;99.90
2453;DHT22;63678;47.994;7.854;2023-09-07T15:22:44;30.00;99.90
2453;DHT22;63678;47.994;7.854;2023-09-07T15:27:49;30.20;99.90
2453;DHT22;63678;47.994;7.854;2023-09-07T15:30:23;30.10;99.90
2453;DHT22;63678;47.994;7.854;2023-09-07T15:32:56;30.20;99.90
2453;DHT22;63678;47.994;7.854;2023-09-07T15:35:28;30.10;99.90
2453;DHT22;63678;47.994;7.854;2023-09-07T15:38:00;30.00;99.90
2453;DHT22;63678;47.994;7.854;2023-09-07T15:40:34;30.00;99.90
2453;DHT22;63678;47.994;7.854;2023-09-07T15:43:06;29.80;99.90
2453;DHT22;63678;47.994;7.854;2023-09-07T15:48:12;29.90;99.90
2453;DHT22;63678;47.994;7.854;2023-09-07T15:50:45;29.90;99.90
2453;DHT22;63678;47.994;7.854;2023-09-07T15:53:17;29.80;99.90
2453;DHT22;63678;47.994;7.854;2023-09-07T15:55:49;29.70;99.90
2453;DHT22;63678;47.994;7.854;2023-09-07T15:58:21;29.70;99.90
2453;DHT22;63678;47.994;7.854;2023-09-07T16:00:53;29.80;99.90
2453;DHT22;63678;47.994;7.854;2023-09-07T16:03:25;29.70;99.90
2453;DHT22;63678;47.994;7.854;2023-09-07T16:05:58;29.70;99.90
2453;DHT22;63678;47.994;7.854;2023-09-07T16:08:30;29.70;99.90
2453;DHT22;63678;47.994;7.854;2023-09-07T16:11:04;29.70;99.90
2453;DHT22;63678;47.994;7.854;2023-09-07T16:13:36;29.70;99.90
2453;DHT22;63678;47.994;7.854;2023-09-07T16:16:08;29.60;99.90
2453;DHT22;63678;47.994;7.854;2023-09-07T16:18:41;29.40;99.90
2453;DHT22;63678;47.994;7.854;2023-09-07T16:21:14;29.50;99.90
2453;DHT22;63678;47.994;7.854;2023-09-07T16:23:50;29.40;99.90
2453;DHT22;63678;47.994;7.854;2023-09-07T16:26:22;29.30;99.90
2453;DHT22;63678;47.994;7.854;2023-09-07T16:28:54;29.20;99.90
2453;DHT22;63678;47.994;7.854;2023-09-07T16:31:27;29.20;99.90
2453;DHT22;63678;47.994;7.854;2023-09-07T16:33:59;29.20;99.90
2453;DHT22;63678;47.994;7.854;2023-09-07T16:36:35;29.20;99.90
2453;DHT22;63678;47.994;7.854;2023-09-07T16:41:41;29.10;99.90
2453;DHT22;63678;47.994;7.854;2023-09-07T16:44:14;29.10;99.90
2453;DHT22;63678;47.994;7.854;2023-09-07T16:46:46;29.00;99.90
2453;DHT22;63678;47.994;7.854;2023-09-07T16:51:51;28.90;99.90
2453;DHT22;63678;47.994;7.854;2023-09-07T16:54:24;28.90;99.90
2453;DHT22;63678;47.994;7.854;2023-09-07T16:59:29;28.80;99.90
2453;DHT22;63678;47.994;7.854;2023-09-07T17:02:23;28.70;99.90
2453;DHT22;63678;47.994;7.854;2023-09-07T17:04:55;28.50;99.90
2453;DHT22;63678;47.994;7.854;2023-09-07T17:07:28;28.50;99.90
2453;DHT22;63678;47.994;7.854;2023-09-07T17:12:33;28.20;99.90
2453;DHT22;63678;47.994;7.854;2023-09-07T17:15:05;28.20;99.90
2453;DHT22;63678;47.994;7.854;2023-09-07T17:17:38;28.10;99.90
2453;DHT22;63678;47.994;7.854;2023-09-07T17:20:10;28.10;99.90
2453;DHT22;63678;47.994;7.854;2023-09-07T17:22:44;28.10;99.90
2453;DHT22;63678;47.994;7.854;2023-09-07T17:25:20;28.00;99.90
2453;DHT22;63678;47.994;7.854;2023-09-07T17:27:52;27.90;99.90
2453;DHT22;63678;47.994;7.854;2023-09-07T17:30:24;27.80;99.90
2453;DHT22;63678;47.994;7.854;2023-09-07T17:32:56;27.70;99.90
2453;DHT22;63678;47.994;7.854;2023-09-07T17:35:29;27.70;99.90
2453;DHT22;63678;47.994;7.854;2023-09-07T17:38:02;27.60;99.90
2453;DHT22;63678;47.994;7.854;2023-09-07T17:40:34;27.50;99.90
2453;DHT22;63678;47.994;7.854;2023-09-07T17:43:06;27.40;99.90
2453;DHT22;63678;47.994;7.854;2023-09-07T17:45:38;27.30;99.90
2453;DHT22;63678;47.994;7.854;2023-09-07T17:48:11;27.20;99.90
2453;DHT22;63678;47.994;7.854;2023-09-07T17:50:43;27.20;99.90
2453;DHT22;63678;47.994;7.854;2023-09-07T17:53:15;27.00;99.90
2453;DHT22;63678;47.994;7.854;2023-09-07T17:55:47;26.90;99.90
2453;DHT22;63678;47.994;7.854;2023-09-07T17:58:20;26.80;99.90
2453;DHT22;63678;47.994;7.854;2023-09-07T18:00:51;26.70;99.90
2453;DHT22;63678;47.994;7.854;2023-09-07T18:03:24;26.50;99.90
2453;DHT22;63678;47.994;7.854;2023-09-07T18:05:56;26.30;99.90
2453;DHT22;63678;47.994;7.854;2023-09-07T18:08:29;26.20;99.90
2453;DHT22;63678;47.994;7.854;2023-09-07T18:11:02;26.20;99.90
2453;DHT22;63678;47.994;7.854;2023-09-07T18:16:07;26.10;99.90
2453;DHT22;63678;47.994;7.854;2023-09-07T18:18:40;26.10;99.90
2453;DHT22;63678;47.994;7.854;2023-09-07T18:21:12;26.00;99.90
2453;DHT22;63678;47.994;7.854;2023-09-07T18:23:44;26.00;99.90